sensor_id;sensor_type;location;lat;lon;timestamp;temperature;humidity
7240;DHT22;3661;53.288;10.458;2023-12-04T00:00:16;0.10;99.90
7240;DHT22;3661;53.288;10.458;2023-12-04T00:02:48;0.10;99.90
7240;DHT22;3661;53.288;10.458;2023-12-04T00:05:21;0.00;99.90
7240;DHT22;3661;53.288;10.458;2023-12-04T00:07:53;0.00;99.90
7240;DHT22;3661;53.288;10.458;2023-12-04T00:10:25;-0.10;99.90
7240;DHT22;3661;53.288;10.458;2023-12-04T00:12:57;-0.10;99.90
7240;DHT22;3661;53.288;10.458;2023-12-04T00:15:29;-0.10;99.90
7240;DHT22;3661;53.288;10.458;2023-12-04T00:18:02;-0.20;99.90
7240;DHT22;3661;53.288;10.458;2023-12-04T00:20:35;-0.20;99.90
7240;DHT22;3661;53.288;10.458;2023-12-04T00:23:07;-0.20;99.90
7240;DHT22;3661;53.288;10.458;2023-12-04T00:25:39;-0.30;99.90
7240;DHT22;3661;53.288;10.458;2023-12-04T00:28:11;-0.30;99.90
7240;DHT22;3661;53.288;10.458;2023-12-04T00:30:44;-0.30;99.90
7240;DHT22;3661;53.288;10.458;2023-12-04T00:33:16;-0.40;99.90
7240;DHT22;3661;53.288;10.458;2023-12-04T00:35:49;-0.40;99.90
7240;DHT22;3661;53.288;10.458;2023-12-04T00:38:21;-0.40;99.90
7240;DHT22;3661;53.288;10.458;2023-12-04T00:40:54;-0.50;99.90
7240;DHT22;3661;53.288;10.458;2023-12-04T00:43:26;-0.50;99.90
7240;DHT22;3661;53.288;10.458;2023-12-04T00:45:58;-0.50;99.90
7240;DHT22;3661;53.288;10.458;2023-12-04T00:48:30;-0.60;99.90
7240;DHT22;3661;53.288;10.458;2023-12-04T00:51:04;-0.60;99.90
7240;DHT22;3661;53.288;10.458;2023-12-04T00:53:36;-0.60;99.90
7240;DHT22;3661;53.288;10.458;2023-12-04T00:56:09;-0.70;99.90
7240;DHT22;3661;53.288;10.458;2023-12-04T00:58:41;-0.70;99.90
7240;DHT22;3661;53.288;10.458;2023-12-04T01:01:13;-0.70;99.90
7240;DHT22;3661;53.288;10.458;2023-12-04T01:03:46;-0.70;99.90
7240;DHT22;3661;53.288;10.458;2023-12-04T01:06:22;-0.80;99.90
7240;DHT22;3661;53.288;10.458;2023-12-04T01:08:55;-0.80;99.90
7240;DHT22;3661;53.288;10.458;2023-12-04T01:11:27;-0.90;99.90
7240;DHT22;3661;53.288;10.458;2023-12-04T01:13:59;-0.90;99.90
7240;DHT22;3661;53.288;10.458;2023-12-04T01:16:33;-0.90;99.90
7240;DHT22;3661;53.288;10.458;2023-12-04T01:19:05;-0.90;99.90
7240;DHT22;3661;53.288;10.458;2023-12-04T01:21:38;-1.00;99.90
7240;DHT22;3661;53.288;10.458;2023-12-04T01:24:10;-1.00;99.90
7240;DHT22;3661;53.288;10.458;2023-12-04T01:26:43;-1.00;99.90
7240;DHT22;3661;53.288;10.458;2023-12-04T01:29:15;-1.10;99.90
7240;DHT22;3661;53.288;10.458;2023-12-04T01:31:47;-1.10;99.90
7240;DHT22;3661;53.288;10.458;2023-12-04T01:34:19;-1.10;99.90
7240;DHT22;3661;53.288;10.458;2023-12-04T01:36:52;-1.20;99.90
7240;DHT22;3661;53.288;10.458;2023-12-04T01:39:25;-1.20;99.90
7240;DHT22;3661;53.288;10.458;2023-12-04T01:41:57;-1.20;99.90
7240;DHT22;3661;53.288;10.458;2023-12-04T01:44:29;-1.20;99.90
7240;DHT22;3661;53.288;10.458;2023-12-04T01:47:01;-1.30;99.90
7240;DHT22;3661;53.288;10.458;2023-12-04T01:49:34;-1.30;99.90
7240;DHT22;3661;53.288;10.458;2023-12-04T01:52:07;-1.30;99.90
7240;DHT22;3661;53.288;10.458;2023-12-04T01:54:40;-1.30;99.90
7240;DHT22;3661;53.288;10.458;2023-12-04T01:57:12;-1.40;99.90
7240;DHT22;3661;53.288;10.458;2023-12-04T01:59:45;-1.40;99.90
7240;DHT22;3661;53.288;10.458;2023-12-04T02:02:17;-1.40;99.90
7240;DHT22;3661;53.288;10.458;2023-12-04T02:04:50;-1.50;99.90
7240;DHT22;3661;53.288;10.458;2023-12-04T02:07:25;-1.50;99.90
7240;DHT22;3661;53.288;10.458;2023-12-04T02:09:57;-1.50;99.90
7240;DHT22;3661;53.288;10.458;2023-12-04T02:12:29;-1.60;99.90
7240;DHT22;3661;53.288;10.458;2023-12-04T02:15:02;-1.60;99.90
7240;DHT22;3661;53.288;10.458;2023-12-04T02:17:34;-1.60;99.90
7240;DHT22;3661;53.288;10.458;2023-12-04T02:20:08;-1.70;99.90
7240;DHT22;3661;53.288;10.458;2023-12-04T02:22:41;-1.70;99.90
7240;DHT22;3661;53.288;10.458;2023-12-04T02:25:15;-1.70;99.90
7240;DHT22;3661;53.288;10.458;2023-12-04T02:27:50;-1.70;99.90
7240;DHT22;3661;53.288;10.458;2023-12-04T02:30:23;-1.80;99.90
7240;DHT22;3661;53.288;10.458;2023-12-04T02:32:58;-1.80;99.90
7240;DHT22;3661;53.288;10.458;2023-12-04T02:35:33;-1.80;99.90
7240;DHT22;3661;53.288;10.458;2023-12-04T02:38:06;-1.90;99.90
7240;DHT22;3661;53.288;10.458;2023-12-04T02:40:40;-1.90;99.90
7240;DHT22;3661;53.288;10.458;2023-12-04T02:43:13;-1.90;99.90
7240;DHT22;3661;53.288;10.458;2023-12-04T02:45:45;-1.90;99.90
7240;DHT22;3661;53.288;10.458;2023-12-04T02:48:17;-1.90;99.90
7240;DHT22;3661;53.288;10.458;2023-12-04T02:50:49;-2.00;99.90
7240;DHT22;3661;53.288;10.458;2023-12-04T02:53:21;-2.00;99.90
7240;DHT22;3661;53.288;10.458;2023-12-04T02:55:54;-2.00;99.90
7240;DHT22;3661;53.288;10.458;2023-12-04T02:58:26;-2.00;99.90
7240;DHT22;3661;53.288;10.458;2023-12-04T03:00:58;-2.00;99.90
7240;DHT22;3661;53.288;10.458;2023-12-04T03:03:30;-2.10;99.90
7240;DHT22;3661;53.288;10.458;2023-12-04T03:06:03;-2.10;99.90
7240;DHT22;3661;53.288;10.458;2023-12-04T03:08:35;-2.10;99.90
7240;DHT22;3661;53.288;10.458;2023-12-04T03:11:09;-2.10;99.90
7240;DHT22;3661;53.288;10.458;2023-12-04T03:13:41;-2.10;99.90
7240;DHT22;3661;53.288;10.458;2023-12-04T03:16:17;-2.10;99.90
7240;DHT22;3661;53.288;10.458;2023-12-04T03:18:49;-2.20;99.90
7240;DHT22;3661;53.288;10.458;2023-12-04T03:21:21;-2.20;99.90
7240;DHT22;3661;53.288;10.458;2023-12-04T03:23:53;-2.20;99.90
7240;DHT22;3661;53.288;10.458;2023-12-04T03:26:27;-2.20;99.90
7240;DHT22;3661;53.288;10.458;2023-12-04T03:28:59;-2.20;99.90
7240;DHT22;3661;53.288;10.458;2023-12-04T03:31:31;-2.20;99.90
7240;DHT22;3661;53.288;10.458;2023-12-04T03:34:04;-2.20;99.90
7240;DHT22;3661;53.288;10.458;2023-12-04T03:36:36;-2.20;99.90
7240;DHT22;3661;53.288;10.458;2023-12-04T03:39:09;-2.30;99.90
7240;DHT22;3661;53.288;10.458;2023-12-04T03:41:42;-2.30;99.90
7240;DHT22;3661;53.288;10.458;2023-12-04T03:44:14;-2.30;99.90
7240;DHT22;3661;53.288;10.458;2023-12-04T03:46:47;-2.30;99.90
7240;DHT22;3661;53.288;10.458;2023-12-04T03:49:19;-2.30;99.90
7240;DHT22;3661;53.288;10.458;2023-12-04T03:51:51;-2.30;99.90
7240;DHT22;3661;53.288;10.458;2023-12-04T03:54:24;-2.40;99.90
7240;DHT22;3661;53.288;10.458;2023-12-04T03:56:57;-2.40;99.90
7240;DHT22;3661;53.288;10.458;2023-12-04T03:59:29;-2.40;99.90
7240;DHT22;3661;53.288;10.458;2023-12-04T04:02:01;-2.40;99.90
7240;DHT22;3661;53.288;10.458;2023-12-04T04:04:33;-2.40;99.90
7240;DHT22;3661;53.288;10.458;2023-12-04T04:07:05;-2.40;99.90
7240;DHT22;3661;53.288;10.458;2023-12-04T04:09:37;-2.40;99.90
7240;DHT22;3661;53.288;10.458;2023-12-04T04:12:11;-2.50;99.90
7240;DHT22;3661;53.288;10.458;2023-12-04T04:14:43;-2.50;99.90
7240;DHT22;3661;53.288;10.458;2023-12-04T04:17:15;-2.40;99.90
7240;DHT22;3661;53.288;10.458;2023-12-04T04:19:47;-2.40;99.90
7240;DHT22;3661;53.288;10.458;2023-12-04T04:22:21;-2.40;99.90
7240;DHT22;3661;53.288;10.458;2023-12-04T04:24:54;-2.50;99.90
7240;DHT22;3661;53.288;10.458;2023-12-04T04:27:27;-2.50;99.90
7240;DHT22;3661;53.288;10.458;2023-12-04T04:30:00;-2.50;99.90
7240;DHT22;3661;53.288;10.458;2023-12-04T04:32:32;-2.50;99.90
7240;DHT22;3661;53.288;10.458;2023-12-04T04:35:04;-2.50;99.90
7240;DHT22;3661;53.288;10.458;2023-12-04T04:37:36;-2.50;99.90
7240;DHT22;3661;53.288;10.458;2023-12-04T04:40:09;-2.50;99.90
7240;DHT22;3661;53.288;10.458;2023-12-04T04:42:42;-2.50;99.90
7240;DHT22;3661;53.288;10.458;2023-12-04T04:45:15;-2.60;99.90
7240;DHT22;3661;53.288;10.458;2023-12-04T04:47:47;-2.60;99.90
7240;DHT22;3661;53.288;10.458;2023-12-04T04:50:19;-2.60;99.90
7240;DHT22;3661;53.288;10.458;2023-12-04T04:52:51;-2.60;99.90
7240;DHT22;3661;53.288;10.458;2023-12-04T04:55:23;-2.60;99.90
7240;DHT22;3661;53.288;10.458;2023-12-04T04:57:56;-2.60;99.90
7240;DHT22;3661;53.288;10.458;2023-12-04T05:00:28;-2.60;99.90
7240;DHT22;3661;53.288;10.458;2023-12-04T05:03:00;-2.60;99.90
7240;DHT22;3661;53.288;10.458;2023-12-04T05:05:32;-2.60;99.90
7240;DHT22;3661;53.288;10.458;2023-12-04T05:08:04;-2.60;99.90
7240;DHT22;3661;53.288;10.458;2023-12-04T05:10:38;-2.60;99.90
7240;DHT22;3661;53.288;10.458;2023-12-04T05:13:11;-2.70;99.90
7240;DHT22;3661;53.288;10.458;2023-12-04T05:15:43;-2.70;99.90
7240;DHT22;3661;53.288;10.458;2023-12-04T05:18:15;-2.70;99.90
7240;DHT22;3661;53.288;10.458;2023-12-04T05:20:53;-2.70;99.90
7240;DHT22;3661;53.288;10.458;2023-12-04T05:23:27;-2.70;99.90
7240;DHT22;3661;53.288;10.458;2023-12-04T05:25:59;-2.70;99.90
7240;DHT22;3661;53.288;10.458;2023-12-04T05:28:33;-2.70;99.90
7240;DHT22;3661;53.288;10.458;2023-12-04T05:31:06;-2.70;99.90
7240;DHT22;3661;53.288;10.458;2023-12-04T05:33:38;-2.70;99.90
7240;DHT22;3661;53.288;10.458;2023-12-04T05:36:10;-2.70;99.90
7240;DHT22;3661;53.288;10.458;2023-12-04T05:38:43;-2.80;99.90
7240;DHT22;3661;53.288;10.458;2023-12-04T05:41:15;-2.80;99.90
7240;DHT22;3661;53.288;10.458;2023-12-04T05:43:48;-2.80;99.90
7240;DHT22;3661;53.288;10.458;2023-12-04T05:46:20;-2.80;99.90
7240;DHT22;3661;53.288;10.458;2023-12-04T05:48:54;-2.80;99.90
7240;DHT22;3661;53.288;10.458;2023-12-04T05:51:26;-2.80;99.90
7240;DHT22;3661;53.288;10.458;2023-12-04T05:53:58;-2.80;99.90
7240;DHT22;3661;53.288;10.458;2023-12-04T05:56:30;-2.80;99.90
7240;DHT22;3661;53.288;10.458;2023-12-04T05:59:04;-2.80;99.90
7240;DHT22;3661;53.288;10.458;2023-12-04T06:01:36;-2.80;99.90
7240;DHT22;3661;53.288;10.458;2023-12-04T06:04:08;-2.80;99.90
7240;DHT22;3661;53.288;10.458;2023-12-04T06:06:40;-2.80;99.90
7240;DHT22;3661;53.288;10.458;2023-12-04T06:09:12;-2.80;99.90
7240;DHT22;3661;53.288;10.458;2023-12-04T06:11:46;-2.80;99.90
7240;DHT22;3661;53.288;10.458;2023-12-04T06:14:19;-2.80;99.90
7240;DHT22;3661;53.288;10.458;2023-12-04T06:16:51;-2.80;99.90
7240;DHT22;3661;53.288;10.458;2023-12-04T06:19:23;-2.80;99.90
7240;DHT22;3661;53.288;10.458;2023-12-04T06:21:55;-2.80;99.90
7240;DHT22;3661;53.288;10.458;2023-12-04T06:24:28;-2.80;99.90
7240;DHT22;3661;53.288;10.458;2023-12-04T06:27:01;-2.80;99.90
7240;DHT22;3661;53.288;10.458;2023-12-04T06:29:39;-2.80;99.90
7240;DHT22;3661;53.288;10.458;2023-12-04T06:32:12;-2.80;99.90
7240;DHT22;3661;53.288;10.458;2023-12-04T06:34:46;-2.80;99.90
7240;DHT22;3661;53.288;10.458;2023-12-04T06:37:18;-2.80;99.90
7240;DHT22;3661;53.288;10.458;2023-12-04T06:40:00;-2.80;99.90
7240;DHT22;3661;53.288;10.458;2023-12-04T06:42:34;-2.80;99.90
7240;DHT22;3661;53.288;10.458;2023-12-04T06:45:08;-2.70;99.90
7240;DHT22;3661;53.288;10.458;2023-12-04T06:47:44;-2.70;99.90
7240;DHT22;3661;53.288;10.458;2023-12-04T06:50:17;-2.70;99.90
7240;DHT22;3661;53.288;10.458;2023-12-04T06:52:49;-2.70;99.90
7240;DHT22;3661;53.288;10.458;2023-12-04T06:55:23;-2.70;99.90
7240;DHT22;3661;53.288;10.458;2023-12-04T06:57:55;-2.70;99.90
7240;DHT22;3661;53.288;10.458;2023-12-04T07:00:29;-2.60;99.90
7240;DHT22;3661;53.288;10.458;2023-12-04T07:03:01;-2.60;99.90
7240;DHT22;3661;53.288;10.458;2023-12-04T07:05:33;-2.50;99.90
7240;DHT22;3661;53.288;10.458;2023-12-04T07:08:05;-2.50;99.90
7240;DHT22;3661;53.288;10.458;2023-12-04T07:10:37;-2.50;99.90
7240;DHT22;3661;53.288;10.458;2023-12-04T07:13:10;-2.50;99.90
7240;DHT22;3661;53.288;10.458;2023-12-04T07:15:47;-2.50;99.90
7240;DHT22;3661;53.288;10.458;2023-12-04T07:18:19;-2.50;99.90
7240;DHT22;3661;53.288;10.458;2023-12-04T07:20:51;-2.50;99.90
7240;DHT22;3661;53.288;10.458;2023-12-04T07:23:29;-2.50;99.90
7240;DHT22;3661;53.288;10.458;2023-12-04T07:26:01;-2.40;99.90
7240;DHT22;3661;53.288;10.458;2023-12-04T07:28:34;-2.50;99.90
7240;DHT22;3661;53.288;10.458;2023-12-04T07:31:11;-2.50;99.90
7240;DHT22;3661;53.288;10.458;2023-12-04T07:33:48;-2.40;99.90
7240;DHT22;3661;53.288;10.458;2023-12-04T07:36:25;-2.40;99.90
7240;DHT22;3661;53.288;10.458;2023-12-04T07:39:00;-2.40;99.90
7240;DHT22;3661;53.288;10.458;2023-12-04T07:41:32;-2.40;99.90
7240;DHT22;3661;53.288;10.458;2023-12-04T07:44:10;-2.40;99.90
7240;DHT22;3661;53.288;10.458;2023-12-04T07:46:44;-2.40;99.90
7240;DHT22;3661;53.288;10.458;2023-12-04T07:49:17;-2.40;99.90
7240;DHT22;3661;53.288;10.458;2023-12-04T07:51:49;-2.30;99.90
7240;DHT22;3661;53.288;10.458;2023-12-04T07:54:21;-2.30;99.90
7240;DHT22;3661;53.288;10.458;2023-12-04T07:56:56;-2.30;99.90
7240;DHT22;3661;53.288;10.458;2023-12-04T07:59:28;-2.30;99.90
7240;DHT22;3661;53.288;10.458;2023-12-04T08:02:03;-2.30;99.90
7240;DHT22;3661;53.288;10.458;2023-12-04T08:04:35;-2.30;99.90
7240;DHT22;3661;53.288;10.458;2023-12-04T08:07:11;-2.30;99.90
7240;DHT22;3661;53.288;10.458;2023-12-04T08:09:43;-2.20;99.90
7240;DHT22;3661;53.288;10.458;2023-12-04T08:12:15;-2.20;99.90
7240;DHT22;3661;53.288;10.458;2023-12-04T08:14:47;-2.20;99.90
7240;DHT22;3661;53.288;10.458;2023-12-04T08:17:21;-2.20;99.90
7240;DHT22;3661;53.288;10.458;2023-12-04T08:19:53;-2.20;99.90
7240;DHT22;3661;53.288;10.458;2023-12-04T08:22:25;-2.20;99.90
7240;DHT22;3661;53.288;10.458;2023-12-04T08:24:57;-2.20;99.90
7240;DHT22;3661;53.288;10.458;2023-12-04T08:27:33;-2.20;99.90
7240;DHT22;3661;53.288;10.458;2023-12-04T08:30:06;-2.10;99.90
7240;DHT22;3661;53.288;10.458;2023-12-04T08:32:40;-2.20;99.90
7240;DHT22;3661;53.288;10.458;2023-12-04T08:35:12;-2.10;99.90
7240;DHT22;3661;53.288;10.458;2023-12-04T08:37:44;-2.10;99.90
7240;DHT22;3661;53.288;10.458;2023-12-04T08:40:17;-2.10;99.90
7240;DHT22;3661;53.288;10.458;2023-12-04T08:42:49;-2.10;99.90
7240;DHT22;3661;53.288;10.458;2023-12-04T08:45:21;-2.10;99.90
7240;DHT22;3661;53.288;10.458;2023-12-04T08:47:54;-2.10;99.90
7240;DHT22;3661;53.288;10.458;2023-12-04T08:50:26;-2.10;99.90
7240;DHT22;3661;53.288;10.458;2023-12-04T08:52:58;-2.00;99.90
7240;DHT22;3661;53.288;10.458;2023-12-04T08:55:30;-2.00;99.90
7240;DHT22;3661;53.288;10.458;2023-12-04T08:58:02;-2.00;99.90
7240;DHT22;3661;53.288;10.458;2023-12-04T09:00:35;-2.00;99.90
7240;DHT22;3661;53.288;10.458;2023-12-04T09:03:09;-2.00;99.90
7240;DHT22;3661;53.288;10.458;2023-12-04T09:05:42;-2.00;99.90
7240;DHT22;3661;53.288;10.458;2023-12-04T09:08:14;-2.00;99.90
7240;DHT22;3661;53.288;10.458;2023-12-04T09:10:46;-2.00;99.90
7240;DHT22;3661;53.288;10.458;2023-12-04T09:13:19;-1.90;99.90
7240;DHT22;3661;53.288;10.458;2023-12-04T09:15:51;-2.00;99.90
7240;DHT22;3661;53.288;10.458;2023-12-04T09:18:24;-1.90;99.90
7240;DHT22;3661;53.288;10.458;2023-12-04T09:20:56;-1.90;99.90
7240;DHT22;3661;53.288;10.458;2023-12-04T09:23:28;-1.90;99.90
7240;DHT22;3661;53.288;10.458;2023-12-04T09:26:01;-1.90;99.90
7240;DHT22;3661;53.288;10.458;2023-12-04T09:28:33;-1.90;99.90
7240;DHT22;3661;53.288;10.458;2023-12-04T09:31:06;-1.80;99.90
7240;DHT22;3661;53.288;10.458;2023-12-04T09:33:39;-1.80;99.90
7240;DHT22;3661;53.288;10.458;2023-12-04T09:36:11;-1.80;99.90
7240;DHT22;3661;53.288;10.458;2023-12-04T09:38:43;-1.80;99.90
7240;DHT22;3661;53.288;10.458;2023-12-04T09:41:16;-1.80;99.90
7240;DHT22;3661;53.288;10.458;2023-12-04T09:43:48;-1.80;99.90
7240;DHT22;3661;53.288;10.458;2023-12-04T09:46:21;-1.80;99.90
7240;DHT22;3661;53.288;10.458;2023-12-04T09:48:58;-1.70;99.90
7240;DHT22;3661;53.288;10.458;2023-12-04T09:51:39;-1.70;99.90
7240;DHT22;3661;53.288;10.458;2023-12-04T09:54:16;-1.70;99.90
7240;DHT22;3661;53.288;10.458;2023-12-04T09:56:50;-1.70;99.90
7240;DHT22;3661;53.288;10.458;2023-12-04T09:59:24;-1.60;99.90
7240;DHT22;3661;53.288;10.458;2023-12-04T10:01:57;-1.60;99.90
7240;DHT22;3661;53.288;10.458;2023-12-04T10:04:32;-1.60;99.90
7240;DHT22;3661;53.288;10.458;2023-12-04T10:07:04;-1.60;99.90
7240;DHT22;3661;53.288;10.458;2023-12-04T10:09:36;-1.50;99.90
7240;DHT22;3661;53.288;10.458;2023-12-04T10:12:08;-1.50;99.90
7240;DHT22;3661;53.288;10.458;2023-12-04T10:14:40;-1.40;99.90
7240;DHT22;3661;53.288;10.458;2023-12-04T10:17:16;-1.40;99.90
7240;DHT22;3661;53.288;10.458;2023-12-04T10:20:04;-1.30;99.90
7240;DHT22;3661;53.288;10.458;2023-12-04T10:22:53;-1.30;99.90
7240;DHT22;3661;53.288;10.458;2023-12-04T10:25:27;-1.30;99.90
7240;DHT22;3661;53.288;10.458;2023-12-04T10:28:08;-1.20;99.90
7240;DHT22;3661;53.288;10.458;2023-12-04T10:30:42;-1.20;99.90
7240;DHT22;3661;53.288;10.458;2023-12-04T10:33:15;-1.10;99.90
7240;DHT22;3661;53.288;10.458;2023-12-04T10:35:49;-1.10;99.90
7240;DHT22;3661;53.288;10.458;2023-12-04T10:38:21;-1.10;99.90
7240;DHT22;3661;53.288;10.458;2023-12-04T10:40:53;-1.10;99.90
7240;DHT22;3661;53.288;10.458;2023-12-04T10:43:25;-1.00;99.90
7240;DHT22;3661;53.288;10.458;2023-12-04T10:45:57;-1.00;99.90
7240;DHT22;3661;53.288;10.458;2023-12-04T10:48:31;-1.00;99.90
7240;DHT22;3661;53.288;10.458;2023-12-04T10:51:05;-0.90;99.90
7240;DHT22;3661;53.288;10.458;2023-12-04T10:53:38;-0.90;99.90
7240;DHT22;3661;53.288;10.458;2023-12-04T10:56:19;-0.90;99.90
7240;DHT22;3661;53.288;10.458;2023-12-04T10:58:58;-0.80;99.90
7240;DHT22;3661;53.288;10.458;2023-12-04T11:01:32;-0.80;99.90
7240;DHT22;3661;53.288;10.458;2023-12-04T11:04:07;-0.80;99.90
7240;DHT22;3661;53.288;10.458;2023-12-04T11:06:47;-0.70;99.90
7240;DHT22;3661;53.288;10.458;2023-12-04T11:09:21;-0.70;99.90
7240;DHT22;3661;53.288;10.458;2023-12-04T11:12:00;-0.70;99.90
7240;DHT22;3661;53.288;10.458;2023-12-04T11:14:39;-0.60;99.90
7240;DHT22;3661;53.288;10.458;2023-12-04T11:17:14;-0.60;99.90
7240;DHT22;3661;53.288;10.458;2023-12-04T11:19:52;-0.50;99.90
7240;DHT22;3661;53.288;10.458;2023-12-04T11:22:26;-0.50;99.90
7240;DHT22;3661;53.288;10.458;2023-12-04T11:25:06;-0.50;99.90
7240;DHT22;3661;53.288;10.458;2023-12-04T11:27:40;-0.40;99.90
7240;DHT22;3661;53.288;10.458;2023-12-04T11:30:13;-0.40;99.90
7240;DHT22;3661;53.288;10.458;2023-12-04T11:32:49;-0.40;99.90
7240;DHT22;3661;53.288;10.458;2023-12-04T11:35:23;-0.30;99.90
7240;DHT22;3661;53.288;10.458;2023-12-04T11:37:58;-0.30;99.90
7240;DHT22;3661;53.288;10.458;2023-12-04T11:40:31;-0.30;99.90
7240;DHT22;3661;53.288;10.458;2023-12-04T11:45:52;-0.20;99.90
7240;DHT22;3661;53.288;10.458;2023-12-04T11:48:25;-0.20;99.90
7240;DHT22;3661;53.288;10.458;2023-12-04T11:50:57;-0.20;99.90
7240;DHT22;3661;53.288;10.458;2023-12-04T11:53:30;-0.20;99.90
7240;DHT22;3661;53.288;10.458;2023-12-04T11:56:09;-0.10;99.90
7240;DHT22;3661;53.288;10.458;2023-12-04T11:58:44;-0.10;99.90
7240;DHT22;3661;53.288;10.458;2023-12-04T12:01:17;-0.10;99.90
7240;DHT22;3661;53.288;10.458;2023-12-04T12:03:50;-0.10;99.90
7240;DHT22;3661;53.288;10.458;2023-12-04T12:06:23;0.00;99.90
7240;DHT22;3661;53.288;10.458;2023-12-04T12:08:57;0.00;99.90
7240;DHT22;3661;53.288;10.458;2023-12-04T12:11:30;0.00;99.90
7240;DHT22;3661;53.288;10.458;2023-12-04T12:14:02;0.00;99.90
7240;DHT22;3661;53.288;10.458;2023-12-04T12:16:34;0.00;99.90
7240;DHT22;3661;53.288;10.458;2023-12-04T12:19:06;0.00;99.90
7240;DHT22;3661;53.288;10.458;2023-12-04T12:21:39;0.10;99.90
7240;DHT22;3661;53.288;10.458;2023-12-04T12:24:13;0.10;99.90
7240;DHT22;3661;53.288;10.458;2023-12-04T12:26:45;0.10;99.90
7240;DHT22;3661;53.288;10.458;2023-12-04T12:29:18;0.10;99.90
7240;DHT22;3661;53.288;10.458;2023-12-04T12:32:05;0.10;99.90
7240;DHT22;3661;53.288;10.458;2023-12-04T12:34:37;0.20;99.90
7240;DHT22;3661;53.288;10.458;2023-12-04T12:37:10;0.20;99.90
7240;DHT22;3661;53.288;10.458;2023-12-04T12:39:44;0.20;99.90
7240;DHT22;3661;53.288;10.458;2023-12-04T12:42:21;0.20;99.90
7240;DHT22;3661;53.288;10.458;2023-12-04T12:45:00;0.20;99.90
7240;DHT22;3661;53.288;10.458;2023-12-04T12:47:32;0.20;99.90
7240;DHT22;3661;53.288;10.458;2023-12-04T12:50:08;0.30;99.90
7240;DHT22;3661;53.288;10.458;2023-12-04T12:52:43;0.30;99.90
7240;DHT22;3661;53.288;10.458;2023-12-04T12:55:24;0.30;99.90
7240;DHT22;3661;53.288;10.458;2023-12-04T12:57:56;0.30;99.90
7240;DHT22;3661;53.288;10.458;2023-12-04T13:00:29;0.30;99.90
7240;DHT22;3661;53.288;10.458;2023-12-04T13:03:02;0.30;99.90
7240;DHT22;3661;53.288;10.458;2023-12-04T13:05:36;0.40;99.90
7240;DHT22;3661;53.288;10.458;2023-12-04T13:08:13;0.40;99.90
7240;DHT22;3661;53.288;10.458;2023-12-04T13:10:47;0.40;99.90
7240;DHT22;3661;53.288;10.458;2023-12-04T13:13:19;0.40;99.90
7240;DHT22;3661;53.288;10.458;2023-12-04T13:15:51;0.40;99.90
7240;DHT22;3661;53.288;10.458;2023-12-04T13:18:25;0.40;99.90
7240;DHT22;3661;53.288;10.458;2023-12-04T13:20:57;0.40;99.90
7240;DHT22;3661;53.288;10.458;2023-12-04T13:23:29;0.40;99.90
7240;DHT22;3661;53.288;10.458;2023-12-04T13:26:03;0.40;99.90
7240;DHT22;3661;53.288;10.458;2023-12-04T13:28:35;0.40;99.90
7240;DHT22;3661;53.288;10.458;2023-12-04T13:31:08;0.40;99.90
7240;DHT22;3661;53.288;10.458;2023-12-04T13:33:42;0.50;99.90
7240;DHT22;3661;53.288;10.458;2023-12-04T13:36:16;0.50;99.90
7240;DHT22;3661;53.288;10.458;2023-12-04T13:38:48;0.50;99.90
7240;DHT22;3661;53.288;10.458;2023-12-04T13:41:25;0.50;99.90
7240;DHT22;3661;53.288;10.458;2023-12-04T13:44:14;0.50;99.90
7240;DHT22;3661;53.288;10.458;2023-12-04T13:46:46;0.50;99.90
7240;DHT22;3661;53.288;10.458;2023-12-04T13:49:20;0.50;99.90
7240;DHT22;3661;53.288;10.458;2023-12-04T13:51:52;0.50;99.90
7240;DHT22;3661;53.288;10.458;2023-12-04T13:54:24;0.50;99.90
7240;DHT22;3661;53.288;10.458;2023-12-04T13:57:14;0.50;99.90
7240;DHT22;3661;53.288;10.458;2023-12-04T13:59:51;0.50;99.90
7240;DHT22;3661;53.288;10.458;2023-12-04T14:02:23;0.50;99.90
7240;DHT22;3661;53.288;10.458;2023-12-04T14:04:55;0.50;99.90
7240;DHT22;3661;53.288;10.458;2023-12-04T14:07:27;0.50;99.90
7240;DHT22;3661;53.288;10.458;2023-12-04T14:09:59;0.50;99.90
7240;DHT22;3661;53.288;10.458;2023-12-04T14:12:33;0.40;99.90
7240;DHT22;3661;53.288;10.458;2023-12-04T14:15:06;0.40;99.90
7240;DHT22;3661;53.288;10.458;2023-12-04T14:17:38;0.40;99.90
7240;DHT22;3661;53.288;10.458;2023-12-04T14:20:11;0.50;99.90
7240;DHT22;3661;53.288;10.458;2023-12-04T14:22:44;0.40;99.90
7240;DHT22;3661;53.288;10.458;2023-12-04T14:25:17;0.40;99.90
7240;DHT22;3661;53.288;10.458;2023-12-04T14:27:51;0.40;99.90
7240;DHT22;3661;53.288;10.458;2023-12-04T14:30:23;0.40;99.90
7240;DHT22;3661;53.288;10.458;2023-12-04T14:32:58;0.40;99.90
7240;DHT22;3661;53.288;10.458;2023-12-04T14:35:30;0.40;99.90
7240;DHT22;3661;53.288;10.458;2023-12-04T14:38:03;0.40;99.90
7240;DHT22;3661;53.288;10.458;2023-12-04T14:40:35;0.40;99.90
7240;DHT22;3661;53.288;10.458;2023-12-04T14:43:09;0.40;99.90
7240;DHT22;3661;53.288;10.458;2023-12-04T14:45:42;0.40;99.90
7240;DHT22;3661;53.288;10.458;2023-12-04T14:48:15;0.40;99.90
7240;DHT22;3661;53.288;10.458;2023-12-04T14:50:47;0.30;99.90
7240;DHT22;3661;53.288;10.458;2023-12-04T14:53:19;0.30;99.90
7240;DHT22;3661;53.288;10.458;2023-12-04T14:55:59;0.30;99.90
7240;DHT22;3661;53.288;10.458;2023-12-04T14:58:56;0.30;99.90
7240;DHT22;3661;53.288;10.458;2023-12-04T15:01:46;0.30;99.90
7240;DHT22;3661;53.288;10.458;2023-12-04T15:04:38;0.30;99.90
7240;DHT22;3661;53.288;10.458;2023-12-04T15:07:26;0.20;99.90
7240;DHT22;3661;53.288;10.458;2023-12-04T15:10:15;0.20;99.90
7240;DHT22;3661;53.288;10.458;2023-12-04T15:13:13;0.20;99.90
7240;DHT22;3661;53.288;10.458;2023-12-04T15:16:04;0.20;99.90
7240;DHT22;3661;53.288;10.458;2023-12-04T15:18:57;0.20;99.90
7240;DHT22;3661;53.288;10.458;2023-12-04T15:21:51;0.20;99.90
7240;DHT22;3661;53.288;10.458;2023-12-04T15:24:25;0.20;99.90
7240;DHT22;3661;53.288;10.458;2023-12-04T15:26:57;0.20;99.90
7240;DHT22;3661;53.288;10.458;2023-12-04T15:29:28;0.20;99.90
7240;DHT22;3661;53.288;10.458;2023-12-04T15:32:02;0.10;99.90
7240;DHT22;3661;53.288;10.458;2023-12-04T15:34:33;0.10;99.90
7240;DHT22;3661;53.288;10.458;2023-12-04T15:37:05;0.10;99.90
7240;DHT22;3661;53.288;10.458;2023-12-04T15:39:37;0.10;99.90
7240;DHT22;3661;53.288;10.458;2023-12-04T15:42:09;0.10;99.90
7240;DHT22;3661;53.288;10.458;2023-12-04T15:44:40;0.10;99.90
7240;DHT22;3661;53.288;10.458;2023-12-04T15:47:13;0.10;99.90
7240;DHT22;3661;53.288;10.458;2023-12-04T15:49:46;0.00;99.90
7240;DHT22;3661;53.288;10.458;2023-12-04T15:52:17;0.10;99.90
7240;DHT22;3661;53.288;10.458;2023-12-04T15:54:49;0.00;99.90
7240;DHT22;3661;53.288;10.458;2023-12-04T15:57:20;0.00;99.90
7240;DHT22;3661;53.288;10.458;2023-12-04T15:59:52;0.00;99.90
7240;DHT22;3661;53.288;10.458;2023-12-04T16:02:25;0.00;99.90
7240;DHT22;3661;53.288;10.458;2023-12-04T16:04:57;0.00;99.90
7240;DHT22;3661;53.288;10.458;2023-12-04T16:07:29;0.00;99.90
7240;DHT22;3661;53.288;10.458;2023-12-04T16:10:02;0.00;99.90
7240;DHT22;3661;53.288;10.458;2023-12-04T16:12:34;-0.10;99.90
7240;DHT22;3661;53.288;10.458;2023-12-04T16:15:08;-0.10;99.90
7240;DHT22;3661;53.288;10.458;2023-12-04T16:17:42;-0.10;99.90
7240;DHT22;3661;53.288;10.458;2023-12-04T16:20:14;-0.10;99.90
7240;DHT22;3661;53.288;10.458;2023-12-04T16:22:47;-0.10;99.90
7240;DHT22;3661;53.288;10.458;2023-12-04T16:25:19;-0.10;99.90
7240;DHT22;3661;53.288;10.458;2023-12-04T16:27:52;-0.10;99.90
7240;DHT22;3661;53.288;10.458;2023-12-04T16:30:28;-0.10;99.90
7240;DHT22;3661;53.288;10.458;2023-12-04T16:33:01;-0.10;99.90